Time;durP1;ratioP1;P1;durP2;ratioP2;P2;SDS_P1;SDS_P2;PMS_P1;PMS_P2;Temp;Humidity;BMP_temperature;BMP_pressure;BME280_temperature;BME280_humidity;BME280_pressure;Samples;Min_cycle;Max_cycle;Signal;HPM_P1;HPM_P2
2023/04/01 00:02:26;;;;;;;2.22;0.40;;;;;;;;;;5028615;28;20070;-79
2023/04/01 00:04:53;;;;;;;3.95;0.60;;;;;;;;;;5031017;23;20059;-60
2023/04/01 00:07:20;;;;;;;2.63;0.77;;;;;;;;;;4953409;29;20393;-60
2023/04/01 00:09:47;;;;;;;4.57;0.70;;;;;;;;;;4955594;28;20048;-59
2023/04/01 00:12:13;;;;;;;1.85;0.60;;;;;;;;;;4954695;28;20492;-62
2023/04/01 00:14:42;;;;;;;2.75;0.70;;;;;;;;;;4954187;28;20114;-57
2023/04/01 00:17:09;;;;;;;1.52;0.40;;;;;;;;;;4954543;28;20468;-59
2023/04/01 00:19:35;;;;;;;2.30;0.60;;;;;;;;;;4953652;28;20061;-59
2023/04/01 00:22:02;;;;;;;1.75;0.55;;;;;;;;;;4954386;28;20122;-59
2023/04/01 00:24:29;;;;;;;2.15;0.40;;;;;;;;;;4954298;28;20515;-58
2023/04/01 00:26:56;;;;;;;2.55;0.57;;;;;;;;;;4954287;28;20050;-57
2023/04/01 00:29:28;;;;;;;1.83;0.47;;;;;;;;;;4953896;28;20425;-61
2023/04/01 00:31:57;;;;;;;1.83;0.50;;;;;;;;;;4954259;28;20154;-60
2023/04/01 00:34:25;;;;;;;1.58;0.40;;;;;;;;;;4954103;28;20568;-59
2023/04/01 00:36:52;;;;;;;2.47;0.50;;;;;;;;;;4954553;28;20102;-58
2023/04/01 00:39:19;;;;;;;3.35;0.60;;;;;;;;;;4953832;28;20417;-59
2023/04/01 00:41:46;;;;;;;2.80;0.60;;;;;;;;;;4953844;28;20086;-58
2023/04/01 00:44:17;;;;;;;0.90;0.45;;;;;;;;;;4953971;28;20396;-60
2023/04/01 00:46:45;;;;;;;5.95;0.65;;;;;;;;;;4954138;28;20464;-59
2023/04/01 00:49:14;;;;;;;2.90;1.15;;;;;;;;;;4953908;28;20110;-60
2023/04/01 00:51:43;;;;;;;2.47;0.70;;;;;;;;;;4954039;28;20446;-57
2023/04/01 00:54:11;;;;;;;1.52;0.55;;;;;;;;;;4953499;28;20051;-58
2023/04/01 00:56:41;;;;;;;1.83;0.77;;;;;;;;;;4953838;28;20420;-59
2023/04/01 00:59:12;;;;;;;1.30;0.50;;;;;;;;;;4953272;28;20145;-59
2023/04/01 01:01:39;;;;;;;2.42;0.70;;;;;;;;;;4953551;28;20062;-58
2023/04/01 01:04:06;;;;;;;2.38;0.40;;;;;;;;;;4953614;28;20417;-59
2023/04/01 01:06:46;;;;;;;1.75;0.50;;;;;;;;;;4953598;28;20055;-59
2023/04/01 01:09:31;;;;;;;1.33;0.40;;;;;;;;;;4953420;28;20080;-59
2023/04/01 01:12:06;;;;;;;2.05;0.60;;;;;;;;;;4953526;28;20054;-58
2023/04/01 01:14:46;;;;;;;3.08;0.68;;;;;;;;;;4953593;28;20501;-60
2023/04/01 01:17:19;;;;;;;1.30;0.55;;;;;;;;;;4953901;28;20055;-58
2023/04/01 01:20:12;;;;;;;2.78;0.50;;;;;;;;;;4937423;28;20481;-60
2023/04/01 01:22:59;;;;;;;2.83;0.60;;;;;;;;;;4935887;29;20051;-59
2023/04/01 01:25:41;;;;;;;2.75;0.60;;;;;;;;;;4954035;28;20583;-60
2023/04/01 01:28:22;;;;;;;2.65;0.50;;;;;;;;;;4953440;28;20067;-58
2023/04/01 01:30:57;;;;;;;1.60;0.50;;;;;;;;;;4953904;28;20051;-61
2023/04/01 01:33:49;;;;;;;2.58;0.50;;;;;;;;;;4953516;28;20103;-58
2023/04/01 01:36:21;;;;;;;0.80;0.40;;;;;;;;;;4953728;28;20055;-59
2023/04/01 01:38:50;;;;;;;1.42;0.40;;;;;;;;;;4953315;28;20485;-59
2023/04/01 01:41:19;;;;;;;1.52;0.60;;;;;;;;;;4953074;28;20052;-58
2023/04/01 01:43:51;;;;;;;0.80;0.35;;;;;;;;;;4953703;28;20126;-55
2023/04/01 01:46:22;;;;;;;2.33;0.60;;;;;;;;;;4953161;28;20059;-58
2023/04/01 01:48:48;;;;;;;;;;;;;;;;;;4953938;28;20516;-58
2023/04/01 01:51:17;;;;;;;3.17;0.60;;;;;;;;;;4952978;28;19927;-58
2023/04/01 01:53:44;;;;;;;3.38;0.60;;;;;;;;;;4953393;28;20456;-58
2023/04/01 01:56:13;;;;;;;3.05;0.50;;;;;;;;;;4952966;28;20051;-58
2023/04/01 01:58:44;;;;;;;2.25;0.50;;;;;;;;;;4934065;29;20060;-57
2023/04/01 02:01:15;;;;;;;3.03;0.60;;;;;;;;;;4935824;29;20056;-57
2023/04/01 02:03:45;;;;;;;1.35;0.30;;;;;;;;;;4953238;28;20440;-57
2023/04/01 02:06:16;;;;;;;1.58;0.52;;;;;;;;;;4952933;28;20055;-58
2023/04/01 02:08:48;;;;;;;1.08;0.52;;;;;;;;;;4953430;28;20122;-58
2023/04/01 02:11:18;;;;;;;1.45;0.40;;;;;;;;;;4952911;28;20052;-60
2023/04/01 02:13:49;;;;;;;;;;;;;;;;;;4953930;28;20063;-58
2023/04/01 02:16:22;;;;;;;1.90;0.50;;;;;;;;;;4952876;28;19922;-59
2023/04/01 02:18:53;;;;;;;0.98;0.50;;;;;;;;;;4944694;28;20107;-59
2023/04/01 02:21:22;;;;;;;1.45;0.40;;;;;;;;;;4934582;29;20440;-58
2023/04/01 02:23:51;;;;;;;5.07;0.65;;;;;;;;;;4937080;29;20492;-59
2023/04/01 02:26:18;;;;;;;1.20;0.30;;;;;;;;;;4937232;29;20047;-59
2023/04/01 02:28:47;;;;;;;1.67;0.43;;;;;;;;;;4956174;28;20051;-59
2023/04/01 02:31:15;;;;;;;0.65;0.30;;;;;;;;;;4956125;28;20051;-59
2023/04/01 02:33:42;;;;;;;1.02;0.40;;;;;;;;;;4956106;28;20055;-59
2023/04/01 02:36:13;;;;;;;0.40;0.30;;;;;;;;;;4956288;28;20125;-58
2023/04/01 02:38:40;;;;;;;2.17;0.50;;;;;;;;;;4956134;28;20051;-59
2023/04/01 02:41:08;;;;;;;1.75;0.40;;;;;;;;;;4956723;28;20106;-58
2023/04/01 02:43:35;;;;;;;0.82;0.40;;;;;;;;;;4955753;28;20059;-58
2023/04/01 02:46:02;;;;;;;2.00;0.45;;;;;;;;;;4956196;28;20098;-60
2023/04/01 02:48:30;;;;;;;1.70;0.60;;;;;;;;;;4955827;28;20170;-58
2023/04/01 02:50:56;;;;;;;1.08;0.40;;;;;;;;;;4955968;28;20068;-59
2023/04/01 02:53:23;;;;;;;1.83;0.43;;;;;;;;;;4956349;28;20354;-59
2023/04/01 02:55:51;;;;;;;0.75;0.25;;;;;;;;;;4955692;28;20047;-59
2023/04/01 02:58:19;;;;;;;1.42;0.30;;;;;;;;;;4956111;28;20346;-59
2023/04/01 03:00:46;;;;;;;0.77;0.35;;;;;;;;;;4955623;28;20139;-58
2023/04/01 03:03:13;;;;;;;1.15;0.32;;;;;;;;;;4955720;28;20112;-58
2023/04/01 03:05:40;;;;;;;0.90;0.30;;;;;;;;;;4955557;28;20138;-57
2023/04/01 03:08:07;;;;;;;1.08;0.47;;;;;;;;;;4955699;28;20047;-58
2023/04/01 03:10:34;;;;;;;1.58;0.30;;;;;;;;;;4955395;28;20058;-58
2023/04/01 03:13:01;;;;;;;1.23;0.40;;;;;;;;;;4955988;28;20452;-59
2023/04/01 03:15:29;;;;;;;1.55;0.43;;;;;;;;;;4955697;28;20101;-59
2023/04/01 03:17:56;;;;;;;1.80;0.40;;;;;;;;;;4955507;28;20427;-58
2023/04/01 03:20:23;;;;;;;0.73;0.40;;;;;;;;;;4955628;28;20051;-58
2023/04/01 03:22:50;;;;;;;1.05;0.38;;;;;;;;;;4954861;28;20413;-59
2023/04/01 03:25:17;;;;;;;0.40;0.30;;;;;;;;;;4955632;28;20117;-59
2023/04/01 03:27:43;;;;;;;0.70;0.32;;;;;;;;;;4954969;28;20059;-59
2023/04/01 03:30:11;;;;;;;0.38;0.30;;;;;;;;;;4955287;28;20102;-58
2023/04/01 03:32:39;;;;;;;0.20;0.20;;;;;;;;;;4955056;28;20062;-57
2023/04/01 03:35:07;;;;;;;0.55;0.30;;;;;;;;;;4955557;28;20081;-58
2023/04/01 03:37:33;;;;;;;1.58;0.40;;;;;;;;;;4954739;28;20564;-58
2023/04/01 03:40:00;;;;;;;1.38;0.30;;;;;;;;;;4955106;28;20105;-58
2023/04/01 03:42:27;;;;;;;0.30;0.20;;;;;;;;;;4954730;28;20548;-58
2023/04/01 03:44:54;;;;;;;0.35;0.30;;;;;;;;;;4954657;28;20047;-57
2023/04/01 03:47:21;;;;;;;0.30;0.20;;;;;;;;;;4954916;28;20051;-58
2023/04/01 03:49:49;;;;;;;0.82;0.30;;;;;;;;;;4954633;28;20530;-58
2023/04/01 03:52:16;;;;;;;0.28;0.28;;;;;;;;;;4954576;28;20424;-58
2023/04/01 03:54:42;;;;;;;2.45;0.45;;;;;;;;;;4954712;28;20051;-58
2023/04/01 03:57:09;;;;;;;1.63;0.30;;;;;;;;;;4954755;28;20460;-58
2023/04/01 03:59:36;;;;;;;0.75;0.22;;;;;;;;;;4954436;28;20122;-58
2023/04/01 04:02:03;;;;;;;0.38;0.30;;;;;;;;;;4954587;28;20044;-58
2023/04/01 04:04:30;;;;;;;0.73;0.30;;;;;;;;;;4954538;28;20058;-58
2023/04/01 04:06:58;;;;;;;0.85;0.30;;;;;;;;;;4935456;29;20067;-58
2023/04/01 04:09:25;;;;;;;0.70;0.30;;;;;;;;;;4935310;29;20134;-58
2023/04/01 04:11:52;;;;;;;0.93;0.30;;;;;;;;;;4953402;29;20082;-59
2023/04/01 04:14:19;;;;;;;0.82;0.30;;;;;;;;;;4954491;28;20059;-58
2023/04/01 04:16:46;;;;;;;1.17;0.30;;;;;;;;;;4954250;28;20382;-55
2023/04/01 04:19:13;;;;;;;1.35;0.40;;;;;;;;;;4943011;28;20533;-58
2023/04/01 04:21:40;;;;;;;1.13;0.45;;;;;;;;;;4950703;29;20047;-58
2023/04/01 04:24:09;;;;;;;3.00;0.80;;;;;;;;;;4954614;28;20067;-55
2023/04/01 04:26:36;;;;;;;1.90;0.63;;;;;;;;;;4954203;28;20063;-58
2023/04/01 04:29:03;;;;;;;2.35;0.60;;;;;;;;;;4954265;28;20106;-59
2023/04/01 04:31:30;;;;;;;2.38;0.38;;;;;;;;;;4954002;28;20109;-58
2023/04/01 04:33:57;;;;;;;0.40;0.30;;;;;;;;;;4954327;28;20047;-57
2023/04/01 04:36:24;;;;;;;0.80;0.40;;;;;;;;;;4954074;28;20134;-59
2023/04/01 04:38:50;;;;;;;2.15;0.65;;;;;;;;;;4954368;28;20437;-57
2023/04/01 04:41:21;;;;;;;1.02;0.40;;;;;;;;;;4954167;28;20059;-59
2023/04/01 04:43:53;;;;;;;1.02;0.40;;;;;;;;;;4953376;28;20051;-58
2023/04/01 04:46:20;;;;;;;0.88;0.40;;;;;;;;;;4952928;28;20106;-59
2023/04/01 04:48:47;;;;;;;3.35;0.50;;;;;;;;;;4953742;28;20051;-58
2023/04/01 04:51:16;;;;;;;1.60;0.88;;;;;;;;;;4954135;28;20051;-58
2023/04/01 04:53:43;;;;;;;0.60;0.30;;;;;;;;;;4953876;28;20469;-59
2023/04/01 04:56:10;;;;;;;1.38;0.50;;;;;;;;;;4953952;28;20055;-59
2023/04/01 04:58:39;;;;;;;3.17;0.50;;;;;;;;;;4953789;28;20487;-58
2023/04/01 05:01:11;;;;;;;1.77;0.40;;;;;;;;;;4953644;28;20047;-58
2023/04/01 05:03:38;;;;;;;2.45;0.55;;;;;;;;;;4953899;28;20343;-58
2023/04/01 05:06:06;;;;;;;1.65;0.40;;;;;;;;;;4953571;28;20051;-58
2023/04/01 05:08:34;;;;;;;1.42;0.45;;;;;;;;;;4953907;28;20054;-58
2023/04/01 05:11:01;;;;;;;2.38;0.70;;;;;;;;;;4953473;28;20452;-58
2023/04/01 05:13:27;;;;;;;0.35;0.35;;;;;;;;;;4953540;28;20130;-58
2023/04/01 05:15:56;;;;;;;2.72;0.60;;;;;;;;;;4953580;28;20055;-57
2023/04/01 05:18:23;;;;;;;1.90;0.60;;;;;;;;;;4948826;28;20051;-57
2023/04/01 05:20:51;;;;;;;1.75;0.50;;;;;;;;;;4940416;29;20055;-59
2023/04/01 05:23:18;;;;;;;1.38;0.65;;;;;;;;;;4953228;28;20062;-57
2023/04/01 05:25:45;;;;;;;1.20;0.45;;;;;;;;;;4953320;28;20055;-57
2023/04/01 05:28:12;;;;;;;2.17;0.40;;;;;;;;;;4953364;28;20062;-58
2023/04/01 05:30:41;;;;;;;0.73;0.40;;;;;;;;;;4953556;28;20437;-58
2023/04/01 05:33:10;;;;;;;1.17;0.50;;;;;;;;;;4953254;28;20055;-58
2023/04/01 05:35:37;;;;;;;2.92;0.57;;;;;;;;;;4953552;28;20189;-57
2023/04/01 05:38:04;;;;;;;1.70;0.47;;;;;;;;;;4953556;28;20501;-57
2023/04/01 05:40:31;;;;;;;3.15;0.70;;;;;;;;;;4953277;28;20535;-58
2023/04/01 05:42:59;;;;;;;1.52;0.47;;;;;;;;;;4953479;28;20600;-56
2023/04/01 05:45:25;;;;;;;2.33;0.55;;;;;;;;;;4953212;28;20501;-58
2023/04/01 05:47:52;;;;;;;2.53;0.70;;;;;;;;;;4953398;28;20059;-58
2023/04/01 05:50:21;;;;;;;2.10;0.40;;;;;;;;;;4953267;28;20059;-58
2023/04/01 05:52:47;;;;;;;1.63;0.50;;;;;;;;;;4953091;28;20059;-57
2023/04/01 05:55:14;;;;;;;2.72;0.60;;;;;;;;;;4953304;28;20059;-58
2023/04/01 05:57:41;;;;;;;3.88;0.70;;;;;;;;;;4954674;28;20380;-59
2023/04/01 06:00:09;;;;;;;1.73;0.40;;;;;;;;;;4956747;28;20445;-58
2023/04/01 06:02:37;;;;;;;0.93;0.40;;;;;;;;;;4956756;28;20043;-59
2023/04/01 06:05:14;;;;;;;1.75;0.40;;;;;;;;;;4957025;28;20522;-60
2023/04/01 06:07:42;;;;;;;1.33;0.30;;;;;;;;;;4991908;23;20054;-79
2023/04/01 06:10:14;;;;;;;1.02;0.50;;;;;;;;;;4998692;28;20064;-80
2023/04/01 06:12:57;;;;;;;2.80;0.50;;;;;;;;;;4997829;28;20078;-79
2023/04/01 06:15:37;;;;;;;1.45;0.57;;;;;;;;;;5006492;28;20050;-79
2023/04/01 06:18:48;;;;;;;1.77;0.65;;;;;;;;;;5004789;28;20046;-78
2023/04/01 06:21:35;;;;;;;0.43;0.30;;;;;;;;;;4994927;28;20318;-80
2023/04/01 06:24:16;;;;;;;1.48;0.50;;;;;;;;;;5001743;28;20042;-79
2023/04/01 06:26:52;;;;;;;5.07;0.90;;;;;;;;;;4999830;28;20534;-79
2023/04/01 06:29:45;;;;;;;2.78;0.50;;;;;;;;;;4997894;28;20046;-77
2023/04/01 06:32:33;;;;;;;1.15;0.50;;;;;;;;;;4999517;28;20066;-79
2023/04/01 06:35:32;;;;;;;3.55;0.73;;;;;;;;;;4985887;28;20069;-79
2023/04/01 06:38:19;;;;;;;2.60;0.60;;;;;;;;;;5000115;28;20129;-79
2023/04/01 06:41:20;;;;;;;1.25;0.40;;;;;;;;;;4997906;28;20053;-79
2023/04/01 06:43:51;;;;;;;;;;;;;;;;;;4974006;28;20390;-78
2023/04/01 06:46:24;;;;;;;1.92;0.60;;;;;;;;;;4978833;28;19928;-79
2023/04/01 06:49:06;;;;;;;2.20;0.50;;;;;;;;;;4979598;28;20490;-78
2023/04/01 06:51:43;;;;;;;2.60;0.73;;;;;;;;;;4982124;28;20077;-79
2023/04/01 06:54:13;;;;;;;3.90;0.70;;;;;;;;;;4998357;28;20047;-79
2023/04/01 06:56:43;;;;;;;4.53;0.60;;;;;;;;;;4999911;28;20046;-79
2023/04/01 06:59:14;;;;;;;2.88;0.68;;;;;;;;;;4998744;28;20141;-79
2023/04/01 07:01:46;;;;;;;1.50;0.60;;;;;;;;;;4995906;28;20051;-78
2023/04/01 07:04:16;;;;;;;2.20;0.60;;;;;;;;;;4995667;28;20089;-78
2023/04/01 07:06:48;;;;;;;1.60;0.50;;;;;;;;;;4997275;28;20137;-78
2023/04/01 07:09:19;;;;;;;2.70;0.82;;;;;;;;;;4999115;28;20133;-78
2023/04/01 07:11:47;;;;;;;2.70;0.80;;;;;;;;;;4996788;28;20068;-80
2023/04/01 07:14:20;;;;;;;5.00;0.68;;;;;;;;;;4999539;28;20137;-78
2023/04/01 07:16:52;;;;;;;2.15;0.70;;;;;;;;;;4996800;28;20054;-78
2023/04/01 07:19:25;;;;;;;1.52;0.43;;;;;;;;;;5009094;28;20405;-79
2023/04/01 07:21:56;;;;;;;1.60;0.50;;;;;;;;;;5006423;28;20541;-80
2023/04/01 07:24:26;;;;;;;2.42;0.50;;;;;;;;;;4999728;28;20085;-78
2023/04/01 07:26:56;;;;;;;1.45;0.40;;;;;;;;;;4996699;28;20073;-79
2023/04/01 07:29:24;;;;;;;2.67;0.60;;;;;;;;;;4998638;28;20144;-78
2023/04/01 07:32:04;;;;;;;2.10;0.55;;;;;;;;;;4998204;28;20569;-78
2023/04/01 07:34:35;;;;;;;;;;;;;;;;;;4999260;28;20138;-78
2023/04/01 07:37:08;;;;;;;1.85;0.40;;;;;;;;;;5000645;28;20060;-79
2023/04/01 07:39:50;;;;;;;1.30;0.50;;;;;;;;;;4998075;28;20074;-78
2023/04/01 07:42:28;;;;;;;0.85;0.40;;;;;;;;;;5000106;28;20110;-79
2023/04/01 07:45:05;;;;;;;1.83;0.40;;;;;;;;;;4997468;28;20138;-77
2023/04/01 07:47:44;;;;;;;1.38;0.45;;;;;;;;;;4995815;28;20133;-79
2023/04/01 07:50:19;;;;;;;2.67;0.60;;;;;;;;;;4996123;28;20134;-78
2023/04/01 07:52:53;;;;;;;1.60;0.47;;;;;;;;;;4996340;28;20050;-78
2023/04/01 07:55:25;;;;;;;1.55;0.57;;;;;;;;;;4995328;28;20073;-79
2023/04/01 07:57:59;;;;;;;2.80;0.60;;;;;;;;;;4995048;28;20054;-79
2023/04/01 08:00:31;;;;;;;3.17;1.05;;;;;;;;;;4996382;28;20133;-79
2023/04/01 08:03:18;;;;;;;0.82;0.40;;;;;;;;;;4998441;28;20137;-78
2023/04/01 08:05:54;;;;;;;2.05;0.43;;;;;;;;;;4998496;28;20077;-78
2023/04/01 08:08:33;;;;;;;3.17;0.50;;;;;;;;;;4979196;28;20062;-78
2023/04/01 08:11:10;;;;;;;1.13;0.40;;;;;;;;;;4978069;28;20091;-78
2023/04/01 08:13:45;;;;;;;0.85;0.32;;;;;;;;;;4979519;28;20101;-79
2023/04/01 08:16:24;;;;;;;2.47;0.50;;;;;;;;;;4998339;28;20472;-77
2023/04/01 08:19:00;;;;;;;2.08;0.40;;;;;;;;;;5004804;28;20088;-78
2023/04/01 08:21:32;;;;;;;2.13;0.57;;;;;;;;;;4997397;28;20118;-79
2023/04/01 08:24:03;;;;;;;1.15;0.50;;;;;;;;;;5001002;28;20069;-79
2023/04/01 08:26:36;;;;;;;1.35;0.45;;;;;;;;;;4999604;28;20140;-79
2023/04/01 08:29:10;;;;;;;2.35;0.50;;;;;;;;;;5002472;28;20046;-78
2023/04/01 08:31:41;;;;;;;1.30;0.45;;;;;;;;;;5002638;28;20177;-79
2023/04/01 08:34:18;;;;;;;0.98;0.40;;;;;;;;;;5000070;28;20502;-79
2023/04/01 08:36:49;;;;;;;0.93;0.50;;;;;;;;;;4999520;28;20042;-79
2023/04/01 08:39:21;;;;;;;0.90;0.40;;;;;;;;;;5000013;28;20054;-79
2023/04/01 08:42:12;;;;;;;1.60;0.50;;;;;;;;;;4999242;28;20607;-78
2023/04/01 08:45:08;;;;;;;0.50;0.30;;;;;;;;;;5000791;28;20073;-78
2023/04/01 08:48:08;;;;;;;0.52;0.52;;;;;;;;;;4979001;28;20129;-82
2023/04/01 08:50:56;;;;;;;1.77;0.50;;;;;;;;;;4991428;28;20057;-78
2023/04/01 08:53:37;;;;;;;0.63;0.30;;;;;;;;;;5000447;28;20100;-78
2023/04/01 08:56:15;;;;;;;1.50;0.40;;;;;;;;;;4997859;28;20125;-77
2023/04/01 08:59:14;;;;;;;2.35;0.60;;;;;;;;;;5000897;28;20093;-78
2023/04/01 09:02:05;;;;;;;1.77;0.40;;;;;;;;;;4981173;28;20058;-77
2023/04/01 09:04:51;;;;;;;0.75;0.30;;;;;;;;;;4988030;28;20430;-78
2023/04/01 09:07:35;;;;;;;1.58;0.50;;;;;;;;;;4997434;28;20056;-77
2023/04/01 09:10:35;;;;;;;0.60;0.40;;;;;;;;;;4996757;28;20130;-79
2023/04/01 09:13:21;;;;;;;1.50;0.30;;;;;;;;;;4995610;28;20126;-78
2023/04/01 09:16:21;;;;;;;0.63;0.30;;;;;;;;;;4995362;28;20060;-79
2023/04/01 09:19:06;;;;;;;1.00;0.40;;;;;;;;;;4995541;28;20054;-79
2023/04/01 09:21:45;;;;;;;0.55;0.28;;;;;;;;;;4995563;28;20082;-79
2023/04/01 09:24:27;;;;;;;1.23;0.40;;;;;;;;;;4997115;28;20141;-79
2023/04/01 09:27:15;;;;;;;0.68;0.20;;;;;;;;;;4996222;28;20125;-78
2023/04/01 09:30:24;;;;;;;0.98;0.52;;;;;;;;;;4996291;28;20046;-78
2023/04/01 09:33:10;;;;;;;0.20;0.20;;;;;;;;;;4974321;28;20113;-78
2023/04/01 09:35:50;;;;;;;1.23;0.20;;;;;;;;;;5001716;28;20050;-82
2023/04/01 09:38:27;;;;;;;0.45;0.30;;;;;;;;;;5004871;28;20073;-79
2023/04/01 09:40:57;;;;;;;0.70;0.40;;;;;;;;;;5005081;28;20042;-78
2023/04/01 09:43:29;;;;;;;1.23;0.40;;;;;;;;;;5005407;28;20461;-78
2023/04/01 09:46:13;;;;;;;2.22;0.40;;;;;;;;;;5003959;28;20490;-79
2023/04/01 09:49:14;;;;;;;0.85;0.30;;;;;;;;;;5004572;28;20073;-79
2023/04/01 09:51:58;;;;;;;2.30;0.50;;;;;;;;;;5004368;28;20052;-79
2023/04/01 09:54:41;;;;;;;2.17;0.50;;;;;;;;;;5003310;28;20057;-79
2023/04/01 09:57:32;;;;;;;1.73;0.60;;;;;;;;;;5003742;28;20081;-79
2023/04/01 10:00:18;;;;;;;0.85;0.43;;;;;;;;;;4970905;28;20126;-78
2023/04/01 10:03:08;;;;;;;0.65;0.40;;;;;;;;;;4982914;28;20042;-79
2023/04/01 10:06:18;;;;;;;1.15;0.40;;;;;;;;;;4987851;28;20062;-79
2023/04/01 10:09:31;;;;;;;0.37;0.20;;;;;;;;;;5002770;28;20130;-79
2023/04/01 10:12:28;;;;;;;2.33;0.40;;;;;;;;;;4970583;28;20304;-81
2023/04/01 10:15:30;;;;;;;0.65;0.30;;;;;;;;;;4989179;28;20081;-78
2023/04/01 10:18:34;;;;;;;1.65;0.40;;;;;;;;;;5004576;28;20050;-78
2023/04/01 10:21:31;;;;;;;1.85;0.45;;;;;;;;;;4961835;28;20062;-78
2023/04/01 10:24:28;;;;;;;0.93;0.40;;;;;;;;;;4973659;28;20050;-79
2023/04/01 10:27:22;;;;;;;0.98;0.35;;;;;;;;;;5001247;28;20078;-78
2023/04/01 10:30:21;;;;;;;0.80;0.50;;;;;;;;;;5001784;28;20051;-78
2023/04/01 10:33:33;;;;;;;0.88;0.30;;;;;;;;;;5002250;28;20146;-78
2023/04/01 10:36:38;;;;;;;0.68;0.30;;;;;;;;;;5001289;28;20053;-78
2023/04/01 10:39:28;;;;;;;0.65;0.35;;;;;;;;;;4986088;28;20457;-79
2023/04/01 10:42:23;;;;;;;0.60;0.30;;;;;;;;;;4996599;28;20078;-78
2023/04/01 10:45:20;;;;;;;1.17;0.40;;;;;;;;;;4997033;28;20060;-77
2023/04/01 10:48:15;;;;;;;0.90;0.35;;;;;;;;;;4998973;28;20056;-77
2023/04/01 10:51:11;;;;;;;0.75;0.40;;;;;;;;;;4990353;28;20046;-80
2023/04/01 10:53:50;;;;;;;1.23;0.45;;;;;;;;;;4998947;28;20050;-77
2023/04/01 10:56:34;;;;;;;0.70;0.40;;;;;;;;;;5002515;28;20073;-78
2023/04/01 10:59:49;;;;;;;1.85;0.40;;;;;;;;;;5000583;28;20078;-79
2023/04/01 11:02:51;;;;;;;0.35;0.30;;;;;;;;;;4998892;28;20101;-77
2023/04/01 11:05:50;;;;;;;0.32;0.30;;;;;;;;;;5001202;28;20088;-80
2023/04/01 11:08:47;;;;;;;0.43;0.30;;;;;;;;;;4998987;28;20073;-78
2023/04/01 11:11:49;;;;;;;0.65;0.25;;;;;;;;;;5001671;28;20420;-78
2023/04/01 11:14:50;;;;;;;0.28;0.28;;;;;;;;;;4999788;28;20125;-79
2023/04/01 11:17:43;;;;;;;0.52;0.20;;;;;;;;;;5000723;28;20050;-78
2023/04/01 11:20:52;;;;;;;0.60;0.20;;;;;;;;;;4969298;28;20129;-79
2023/04/01 11:23:44;;;;;;;0.98;0.30;;;;;;;;;;4982931;28;20046;-80
2023/04/01 11:26:20;;;;;;;2.15;0.40;;;;;;;;;;4989303;28;20077;-79
2023/04/01 11:29:04;;;;;;;0.20;0.20;;;;;;;;;;5001849;28;20069;-77
2023/04/01 11:31:42;;;;;;;0.73;0.30;;;;;;;;;;5000629;28;20058;-78
2023/04/01 11:34:30;;;;;;;0.25;0.20;;;;;;;;;;5000630;28;20046;-79
2023/04/01 11:37:08;;;;;;;0.20;0.20;;;;;;;;;;5000424;28;20054;-80
2023/04/01 11:39:46;;;;;;;0.93;0.30;;;;;;;;;;5001236;28;20047;-79
2023/04/01 11:42:25;;;;;;;0.22;0.20;;;;;;;;;;5003050;28;20050;-78
2023/04/01 11:45:01;;;;;;;0.40;0.28;;;;;;;;;;5000844;28;20082;-80
2023/04/01 11:47:53;;;;;;;0.45;0.30;;;;;;;;;;5000441;28;20110;-82
2023/04/01 11:50:28;;;;;;;0.28;0.20;;;;;;;;;;4981055;28;20081;-81
2023/04/01 11:53:06;;;;;;;0.30;0.20;;;;;;;;;;5001073;28;20079;-78
2023/04/01 11:55:42;;;;;;;0.85;0.30;;;;;;;;;;4999395;28;20046;-79
2023/04/01 11:58:24;;;;;;;0.20;0.20;;;;;;;;;;4998796;28;20133;-79
2023/04/01 12:01:09;;;;;;;0.32;0.30;;;;;;;;;;5000348;28;20074;-79
2023/04/01 12:04:10;;;;;;;0.30;0.20;;;;;;;;;;5000170;28;20051;-77
2023/04/01 12:06:49;;;;;;;0.63;0.40;;;;;;;;;;4999062;28;20109;-79
2023/04/01 12:09:24;;;;;;;0.38;0.20;;;;;;;;;;4990198;28;20070;-79
2023/04/01 12:12:02;;;;;;;1.13;0.60;;;;;;;;;;4991271;28;20054;-79
2023/04/01 12:14:35;;;;;;;1.17;0.73;;;;;;;;;;5003254;28;20085;-79
2023/04/01 12:17:10;;;;;;;1.38;0.30;;;;;;;;;;5003297;28;20155;-78
2023/04/01 12:19:44;;;;;;;0.50;0.30;;;;;;;;;;5017823;28;20129;-78
2023/04/01 12:22:24;;;;;;;0.80;0.30;;;;;;;;;;4997592;28;20081;-80
2023/04/01 12:24:59;;;;;;;1.23;0.40;;;;;;;;;;4998674;28;20054;-82
2023/04/01 12:27:40;;;;;;;0.73;0.40;;;;;;;;;;4995709;28;20089;-80
2023/04/01 12:30:22;;;;;;;;;;;;;;;;;;4995382;28;20053;-79
2023/04/01 12:33:00;;;;;;;0.93;0.50;;;;;;;;;;4996041;28;19922;-81
2023/04/01 12:35:55;;;;;;;0.70;0.38;;;;;;;;;;4996618;28;20129;-79
2023/04/01 12:38:30;;;;;;;0.50;0.40;;;;;;;;;;4998977;28;20050;-80
2023/04/01 12:41:25;;;;;;;0.75;0.38;;;;;;;;;;4997013;28;20038;-79
2023/04/01 12:44:28;;;;;;;1.08;0.50;;;;;;;;;;4994606;28;20057;-78
2023/04/01 12:47:22;;;;;;;0.70;0.40;;;;;;;;;;4995353;28;20441;-79
2023/04/01 12:50:06;;;;;;;0.55;0.45;;;;;;;;;;4993993;28;20141;-80
2023/04/01 12:52:46;;;;;;;0.52;0.40;;;;;;;;;;4996805;28;20070;-78
2023/04/01 12:55:38;;;;;;;3.50;0.47;;;;;;;;;;4996436;28;20076;-77
2023/04/01 12:58:52;;;;;;;0.80;0.30;;;;;;;;;;4996309;28;20050;-79
2023/04/01 13:01:32;;;;;;;1.13;0.50;;;;;;;;;;4969093;28;20514;-79
2023/04/01 13:04:33;;;;;;;1.50;0.60;;;;;;;;;;4983850;28;20097;-79
2023/04/01 13:07:37;;;;;;;0.45;0.30;;;;;;;;;;4995900;28;20466;-78
2023/04/01 13:10:12;;;;;;;1.08;0.40;;;;;;;;;;4971378;28;20133;-77
2023/04/01 13:13:06;;;;;;;0.40;0.40;;;;;;;;;;4998350;28;20468;-79
2023/04/01 13:15:41;;;;;;;1.55;0.50;;;;;;;;;;4997460;28;20129;-79
2023/04/01 13:18:21;;;;;;;4.45;0.75;;;;;;;;;;4997810;28;20042;-79
2023/04/01 13:20:58;;;;;;;1.90;0.40;;;;;;;;;;5003221;28;20046;-78
2023/04/01 13:23:44;;;;;;;0.57;0.30;;;;;;;;;;5001028;28;20106;-79
2023/04/01 13:26:23;;;;;;;1.63;0.50;;;;;;;;;;5001620;28;20054;-77
2023/04/01 13:28:57;;;;;;;1.75;0.60;;;;;;;;;;5000866;28;20056;-78
2023/04/01 13:31:39;;;;;;;0.93;0.50;;;;;;;;;;5002592;28;20110;-80
2023/04/01 13:34:21;;;;;;;3.45;0.60;;;;;;;;;;4999702;28;20145;-78
2023/04/01 13:37:02;;;;;;;2.45;0.60;;;;;;;;;;5001615;28;20050;-77
2023/04/01 13:39:44;;;;;;;1.00;0.60;;;;;;;;;;5001472;28;20054;-78
2023/04/01 13:42:22;;;;;;;1.02;0.50;;;;;;;;;;5003712;28;20052;-78
2023/04/01 13:44:52;;;;;;;1.02;0.57;;;;;;;;;;5003118;28;20053;-77
2023/04/01 13:47:45;;;;;;;1.08;0.50;;;;;;;;;;5002066;28;20402;-78
2023/04/01 13:50:27;;;;;;;1.40;0.60;;;;;;;;;;4984440;28;20089;-78
2023/04/01 13:53:19;;;;;;;1.48;0.47;;;;;;;;;;4984979;28;20046;-80
2023/04/01 13:55:55;;;;;;;1.23;0.50;;;;;;;;;;4997709;28;20538;-77
2023/04/01 13:58:47;;;;;;;1.50;0.50;;;;;;;;;;4994266;28;20174;-79
2023/04/01 14:01:20;;;;;;;1.30;0.50;;;;;;;;;;4994658;28;20051;-79
2023/04/01 14:04:04;;;;;;;0.65;0.40;;;;;;;;;;4993848;28;20481;-79
2023/04/01 14:06:42;;;;;;;1.25;0.75;;;;;;;;;;4996501;28;20137;-78
2023/04/01 14:09:23;;;;;;;1.30;0.57;;;;;;;;;;4995359;28;20497;-79
2023/04/01 14:11:57;;;;;;;0.98;0.60;;;;;;;;;;4998371;28;20082;-79
2023/04/01 14:14:37;;;;;;;1.80;0.68;;;;;;;;;;4998025;28;20652;-79
2023/04/01 14:17:21;;;;;;;1.38;0.85;;;;;;;;;;4997671;28;20106;-78
2023/04/01 14:20:14;;;;;;;1.52;0.55;;;;;;;;;;5011687;28;20074;-77
2023/04/01 14:22:53;;;;;;;0.52;0.40;;;;;;;;;;5004340;28;20107;-79
2023/04/01 14:25:48;;;;;;;2.47;0.65;;;;;;;;;;5005127;28;20077;-78
2023/04/01 14:28:23;;;;;;;0.90;0.50;;;;;;;;;;4999773;28;20050;-80
2023/04/01 14:31:05;;;;;;;0.93;0.52;;;;;;;;;;4999444;28;20053;-78
2023/04/01 14:33:42;;;;;;;0.73;0.47;;;;;;;;;;4998879;28;20082;-78
2023/04/01 14:36:30;;;;;;;1.17;0.32;;;;;;;;;;5001940;28;20125;-78
2023/04/01 14:39:14;;;;;;;0.45;0.40;;;;;;;;;;5002040;28;20042;-79
2023/04/01 14:41:49;;;;;;;0.50;0.50;;;;;;;;;;5002092;28;20102;-78
2023/04/01 14:44:24;;;;;;;0.50;0.40;;;;;;;;;;5003218;28;20086;-79
2023/04/01 14:47:25;;;;;;;0.90;0.50;;;;;;;;;;5002313;28;20054;-78
2023/04/01 14:49:53;;;;;;;;;;;;;;;;;;4999307;28;20081;-78
2023/04/01 14:52:25;;;;;;;0.82;0.50;;;;;;;;;;5000356;28;20025;-79
2023/04/01 14:54:53;;;;;;;1.05;0.60;;;;;;;;;;5001230;28;20074;-79
2023/04/01 14:57:25;;;;;;;2.30;0.98;;;;;;;;;;5001012;28;20118;-79
2023/04/01 14:59:54;;;;;;;2.28;1.00;;;;;;;;;;5000658;28;20500;-79
2023/04/01 15:02:52;;;;;;;2.25;0.95;;;;;;;;;;5000988;28;20058;-79
2023/04/01 15:05:33;;;;;;;3.30;1.20;;;;;;;;;;4989081;28;20056;-79
2023/04/01 15:08:22;;;;;;;1.13;0.70;;;;;;;;;;4999006;28;20573;-79
2023/04/01 15:11:00;;;;;;;1.90;0.82;;;;;;;;;;4998875;28;20082;-77
2023/04/01 15:13:49;;;;;;;1.70;0.90;;;;;;;;;;5001412;28;20129;-78
2023/04/01 15:16:24;;;;;;;3.22;1.50;;;;;;;;;;5004101;28;20057;-79
2023/04/01 15:19:01;;;;;;;1.33;0.60;;;;;;;;;;5005548;28;20085;-78
2023/04/01 15:21:45;;;;;;;1.55;0.68;;;;;;;;;;5003492;28;20131;-77
2023/04/01 15:24:20;;;;;;;1.45;0.70;;;;;;;;;;5002764;28;20540;-79
2023/04/01 15:26:59;;;;;;;2.72;1.00;;;;;;;;;;5001595;28;20043;-80
2023/04/01 15:29:42;;;;;;;1.35;0.63;;;;;;;;;;5004479;28;20054;-78
2023/04/01 15:32:17;;;;;;;1.35;0.50;;;;;;;;;;5003389;28;20055;-78
2023/04/01 15:34:53;;;;;;;1.75;0.93;;;;;;;;;;5002302;28;20462;-78
2023/04/01 15:37:31;;;;;;;1.90;0.60;;;;;;;;;;4999993;28;20046;-78
2023/04/01 15:40:03;;;;;;;0.93;0.40;;;;;;;;;;4999423;28;20097;-77
2023/04/01 15:42:45;;;;;;;1.13;0.52;;;;;;;;;;4996724;28;20092;-78
2023/04/01 15:45:18;;;;;;;1.10;0.55;;;;;;;;;;4998161;28;20114;-79
2023/04/01 15:47:54;;;;;;;0.85;0.40;;;;;;;;;;4997958;28;20051;-79